createdAt,value
2018-07-02T04:00:54.231Z,14.89
2018-07-02T04:01:54.093Z,14.98
2018-07-02T04:03:46.777Z,14.93
2018-07-02T04:04:46.674Z,15.00
2018-07-02T04:06:39.381Z,15.01
2018-07-02T04:07:39.247Z,15.02
2018-07-02T04:09:31.924Z,15.04
2018-07-02T04:10:31.821Z,15.02
2018-07-02T04:12:24.521Z,15.13
2018-07-02T04:13:24.405Z,15.10
2018-07-02T04:15:17.102Z,15.08
2018-07-02T04:16:16.971Z,15.12
2018-07-02T04:18:09.660Z,15.16
2018-07-02T04:19:09.534Z,15.15
2018-07-02T04:21:02.365Z,15.20
2018-07-02T04:22:02.105Z,15.16
2018-07-02T04:23:54.829Z,15.15
2018-07-02T04:24:54.682Z,15.08
2018-07-02T04:26:47.362Z,15.19
2018-07-02T04:27:47.252Z,15.18
2018-07-02T04:29:40.004Z,15.18
2018-07-02T04:30:39.829Z,15.20
2018-07-02T04:32:32.509Z,15.19
2018-07-02T04:33:32.405Z,15.31
2018-07-02T04:35:25.620Z,15.27
2018-07-02T04:36:25.500Z,15.26
2018-07-02T04:38:18.179Z,15.23
2018-07-02T04:39:18.079Z,15.31
2018-07-02T04:41:10.767Z,15.33
2018-07-02T04:42:10.647Z,15.43
2018-07-02T04:44:03.319Z,15.33
2018-07-02T04:45:03.255Z,15.37
2018-07-02T04:46:55.926Z,15.49
2018-07-02T04:47:55.785Z,15.47
2018-07-02T04:49:48.475Z,15.58
2018-07-02T04:50:48.411Z,15.60
2018-07-02T04:52:41.073Z,15.68
2018-07-02T04:53:40.935Z,15.67
2018-07-02T04:55:33.631Z,15.65
2018-07-02T04:56:33.516Z,15.67
2018-07-02T04:58:26.212Z,15.71
2018-07-02T04:59:26.090Z,15.74
2018-07-02T05:01:18.761Z,15.74
2018-07-02T05:02:18.657Z,15.83
2018-07-02T05:04:11.438Z,15.92
2018-07-02T05:05:11.242Z,16.02
2018-07-02T05:07:03.917Z,15.91
2018-07-02T05:08:03.817Z,15.99
2018-07-02T05:09:56.519Z,16.11
2018-07-02T05:10:56.387Z,16.02
2018-07-02T05:12:49.068Z,16.10
2018-07-02T05:13:48.966Z,16.00
2018-07-02T05:15:41.664Z,16.02
2018-07-02T05:16:41.540Z,16.08
2018-07-02T05:18:34.423Z,16.18
2018-07-02T05:19:34.122Z,16.22
2018-07-02T05:21:26.822Z,16.25
2018-07-02T05:22:26.692Z,16.34
2018-07-02T05:24:19.371Z,16.44
2018-07-02T05:25:19.260Z,16.42
2018-07-02T05:27:11.965Z,16.40
2018-07-02T05:28:11.834Z,16.47
2018-07-02T05:30:04.508Z,16.55
2018-07-02T05:31:04.405Z,16.58
2018-07-02T05:32:57.099Z,16.58
2018-07-02T05:33:56.980Z,16.67
2018-07-02T05:35:49.657Z,16.81
2018-07-02T05:36:49.555Z,16.80
2018-07-02T05:38:42.248Z,16.88
2018-07-02T05:39:42.127Z,16.88
2018-07-02T05:41:34.807Z,16.90
2018-07-02T05:42:34.701Z,16.88
2018-07-02T05:44:27.398Z,16.99
2018-07-02T05:45:27.276Z,16.94
2018-07-02T05:47:19.953Z,17.07
2018-07-02T05:48:19.848Z,17.07
2018-07-02T05:50:12.547Z,17.15
2018-07-02T05:51:12.421Z,17.18
2018-07-02T05:53:05.129Z,17.22
2018-07-02T05:54:05.001Z,17.32
2018-07-02T05:55:57.680Z,17.32
2018-07-02T05:56:57.571Z,17.32
2018-07-02T05:58:50.282Z,17.42
2018-07-02T05:59:50.147Z,17.43
2018-07-02T06:01:42.824Z,17.52
2018-07-02T06:02:42.724Z,17.62
2018-07-02T06:04:35.424Z,17.73
2018-07-02T06:05:35.309Z,17.79
2018-07-02T06:07:27.983Z,17.90
2018-07-02T06:08:27.881Z,17.88
2018-07-02T06:10:20.579Z,17.86
2018-07-02T06:11:20.459Z,17.96
2018-07-02T06:13:13.186Z,18.14
2018-07-02T06:14:13.040Z,18.23
2018-07-02T06:16:05.742Z,18.61
2018-07-02T06:17:05.614Z,18.90
2018-07-02T06:18:58.311Z,21.55
2018-07-02T06:19:58.206Z,23.60
2018-07-02T06:21:51.070Z,26.44
2018-07-02T06:22:50.790Z,27.59
2018-07-02T06:24:43.535Z,29.40
2018-07-02T06:25:43.387Z,30.18
2018-07-02T06:27:36.137Z,31.03
2018-07-02T06:28:35.991Z,31.47
2018-07-02T06:30:28.722Z,31.41
2018-07-02T06:31:28.610Z,31.77
2018-07-02T06:33:21.329Z,32.67
2018-07-02T06:34:21.217Z,33.18
2018-07-02T06:36:13.933Z,33.43
2018-07-02T06:37:13.838Z,33.75
2018-07-02T06:39:06.755Z,34.05
2018-07-02T06:40:06.465Z,34.17
2018-07-02T06:41:59.210Z,34.15
2018-07-02T06:42:59.089Z,34.22
2018-07-02T06:45:51.721Z,35.08
2018-07-02T06:47:44.715Z,35.33
2018-07-02T06:48:44.349Z,35.47
2018-07-02T06:50:37.086Z,35.61
2018-07-02T06:51:36.973Z,35.80
2018-07-02T06:53:29.696Z,36.15
2018-07-02T06:54:29.610Z,36.32
2018-07-02T06:56:22.356Z,36.36
2018-07-02T06:57:22.242Z,36.51
2018-07-02T06:59:14.957Z,36.55
2018-07-02T07:00:14.879Z,36.51
2018-07-02T07:02:07.616Z,36.46
2018-07-02T07:03:07.522Z,36.83
2018-07-02T07:05:00.234Z,37.15
2018-07-02T07:06:00.151Z,37.15
2018-07-02T07:07:52.889Z,37.11
2018-07-02T07:08:52.791Z,36.93
2018-07-02T07:10:45.521Z,37.22
2018-07-02T07:11:45.433Z,37.64
2018-07-02T07:13:38.171Z,38.00
2018-07-02T07:14:38.068Z,38.15
2018-07-02T07:16:30.789Z,38.36
2018-07-02T07:17:30.711Z,38.31
2018-07-02T07:19:23.452Z,38.31
2018-07-02T07:20:23.351Z,38.56
2018-07-02T07:22:16.079Z,38.43
2018-07-02T07:23:15.998Z,38.22
2018-07-02T07:25:08.736Z,38.12
2018-07-02T07:26:08.640Z,38.13
2018-07-02T07:28:01.374Z,38.24
2018-07-02T07:29:01.291Z,38.46
2018-07-02T07:30:54.045Z,38.56
2018-07-02T07:31:53.940Z,38.58
2018-07-02T07:33:46.661Z,38.77
2018-07-02T07:34:46.582Z,38.62
2018-07-02T07:36:39.331Z,38.44
2018-07-02T07:37:39.231Z,38.46
2018-07-02T07:39:31.960Z,38.28
2018-07-02T07:40:31.884Z,37.61
2018-07-02T07:42:24.635Z,37.72
2018-07-02T07:43:24.535Z,37.81
2018-07-02T07:45:17.264Z,37.90
2018-07-02T07:46:17.187Z,38.00
2018-07-02T07:48:09.928Z,37.31
2018-07-02T07:49:09.833Z,37.30
2018-07-02T07:51:02.552Z,38.08
2018-07-02T07:52:02.470Z,38.10
2018-07-02T07:53:55.214Z,38.08
2018-07-02T07:54:55.116Z,37.80
2018-07-02T07:56:47.846Z,38.35
2018-07-02T07:57:47.768Z,38.49
2018-07-02T07:59:40.518Z,38.66
2018-07-02T08:00:40.420Z,38.99
2018-07-02T08:02:33.146Z,39.19
2018-07-02T08:03:33.092Z,39.16
2018-07-02T08:05:25.833Z,38.83
2018-07-02T08:06:25.720Z,39.12
2018-07-02T08:08:18.588Z,38.33
2018-07-02T08:09:18.366Z,38.22
2018-07-02T08:11:11.118Z,37.93
2018-07-02T08:12:11.015Z,38.00
2018-07-02T08:14:03.741Z,38.24
2018-07-02T08:15:03.667Z,38.43
2018-07-02T08:16:56.550Z,38.36
2018-07-02T08:17:56.304Z,38.31
2018-07-02T08:19:49.036Z,38.66
2018-07-02T08:20:48.957Z,38.68
2018-07-02T08:22:41.696Z,38.22
2018-07-02T08:23:41.598Z,38.50
2018-07-02T08:25:34.323Z,38.12
2018-07-02T08:26:34.245Z,37.98
2018-07-02T08:28:26.999Z,37.37
2018-07-02T08:29:26.894Z,37.07
2018-07-02T08:31:19.672Z,36.84
2018-07-02T08:32:19.566Z,37.02
2018-07-02T08:34:12.381Z,36.47
2018-07-02T08:35:12.250Z,36.52
2018-07-02T08:37:05.003Z,36.36
2018-07-02T08:38:04.944Z,36.65
2018-07-02T08:39:57.791Z,36.88
2018-07-02T08:40:57.618Z,36.26
2018-07-02T08:42:50.352Z,35.90
2018-07-02T08:43:50.269Z,35.90
2018-07-02T08:45:43.020Z,35.76
2018-07-02T08:46:42.962Z,34.90
2018-07-02T08:48:36.061Z,33.73
2018-07-02T08:49:35.951Z,33.93
2018-07-02T08:51:28.647Z,32.99
2018-07-02T08:52:28.561Z,32.91
2018-07-02T08:54:21.299Z,32.45
2018-07-02T08:55:21.219Z,32.56
2018-07-02T08:57:13.981Z,31.31
2018-07-02T08:58:13.867Z,30.93
2018-07-02T09:00:06.595Z,29.95
2018-07-02T09:01:06.505Z,29.89
2018-07-02T09:02:59.307Z,29.38
2018-07-02T09:03:59.175Z,29.01
2018-07-02T09:05:51.902Z,28.51
2018-07-02T09:06:51.812Z,27.84
2018-07-02T09:08:44.599Z,27.27
2018-07-02T09:09:44.457Z,26.74
2018-07-02T09:11:37.254Z,26.52
2018-07-02T09:12:37.146Z,26.42
2018-07-02T09:14:29.840Z,26.45
2018-07-02T09:15:29.710Z,26.56
2018-07-02T09:17:22.412Z,26.86
2018-07-02T09:18:22.319Z,26.99
2018-07-02T09:20:15.035Z,27.31
2018-07-02T09:21:14.922Z,27.37
2018-07-02T09:23:07.671Z,27.53
2018-07-02T09:24:07.524Z,27.74
2018-07-02T09:26:00.246Z,27.74
2018-07-02T09:27:00.180Z,27.65
2018-07-02T09:28:53.045Z,27.48
2018-07-02T09:29:52.823Z,27.46
2018-07-02T09:31:45.473Z,27.46
2018-07-02T09:32:45.364Z,27.52
2018-07-02T09:34:38.142Z,27.59
2018-07-02T09:35:38.040Z,27.64
2018-07-02T09:37:30.764Z,27.43
2018-07-02T09:38:30.657Z,27.41
2018-07-02T09:40:23.380Z,27.42
2018-07-02T09:41:23.244Z,27.65
2018-07-02T09:43:15.948Z,27.74
2018-07-02T09:44:15.869Z,27.69
2018-07-02T09:46:08.566Z,27.59
2018-07-02T09:47:08.455Z,27.55
2018-07-02T09:49:01.240Z,27.65
2018-07-02T09:50:01.055Z,27.80
2018-07-02T09:51:53.771Z,27.71
2018-07-02T09:52:53.652Z,27.79
2018-07-02T09:54:46.357Z,27.61
2018-07-02T09:55:46.328Z,27.43
2018-07-02T09:57:39.051Z,26.78
2018-07-02T09:58:38.901Z,26.72
2018-07-02T10:00:31.641Z,26.78
2018-07-02T10:01:31.496Z,26.72
2018-07-02T10:03:24.247Z,26.59
2018-07-02T10:04:24.126Z,26.32
2018-07-02T10:06:16.830Z,26.06
2018-07-02T10:07:16.755Z,26.23
2018-07-02T10:09:09.481Z,26.53
2018-07-02T10:10:09.349Z,26.47
2018-07-02T10:12:02.076Z,26.56
2018-07-02T10:13:02.023Z,26.72
2018-07-02T10:14:54.777Z,26.90
2018-07-02T10:15:54.600Z,26.91
2018-07-02T10:17:47.327Z,26.60
2018-07-02T10:18:47.235Z,26.60
2018-07-02T10:20:39.962Z,26.60
2018-07-02T10:21:39.850Z,26.57
2018-07-02T10:23:37.332Z,26.41
2018-07-02T10:24:32.458Z,26.24
2018-07-02T10:26:25.162Z,25.85
2018-07-02T10:27:25.048Z,26.03
2018-07-02T10:29:17.756Z,26.37
2018-07-02T10:30:17.648Z,26.44
2018-07-02T10:32:10.466Z,26.47
2018-07-02T10:33:10.338Z,26.50
2018-07-02T10:35:03.001Z,26.79
2018-07-02T10:36:02.898Z,26.90
2018-07-02T10:37:55.621Z,26.99
2018-07-02T10:38:55.506Z,26.71
2018-07-02T10:40:48.262Z,26.86
2018-07-02T10:41:48.141Z,26.96
2018-07-02T10:43:40.894Z,26.84
2018-07-02T10:44:40.796Z,26.61
2018-07-02T10:46:33.544Z,26.44
2018-07-02T10:47:33.461Z,26.32
2018-07-02T10:49:26.134Z,26.16
2018-07-02T10:50:26.108Z,26.19
2018-07-02T10:52:18.835Z,26.24
2018-07-02T10:53:18.618Z,26.44
2018-07-02T10:55:11.392Z,26.68
2018-07-02T10:56:11.289Z,26.69
2018-07-02T10:58:03.967Z,26.76
2018-07-02T10:59:03.851Z,26.61
2018-07-02T11:00:56.541Z,26.61
2018-07-02T11:01:56.449Z,26.64
2018-07-02T11:03:49.155Z,26.68
2018-07-02T11:04:49.041Z,26.67
2018-07-02T11:06:41.739Z,26.75
2018-07-02T11:07:41.651Z,26.81
2018-07-02T11:09:34.358Z,26.60
2018-07-02T11:10:34.245Z,26.67
2018-07-02T11:12:26.937Z,26.76
2018-07-02T11:13:26.837Z,26.84
2018-07-02T11:15:19.549Z,26.87
2018-07-02T11:16:19.430Z,26.87
2018-07-02T11:18:12.123Z,26.89
2018-07-02T11:19:12.029Z,26.68
2018-07-02T11:21:04.736Z,26.61
2018-07-02T11:22:04.619Z,26.54
2018-07-02T11:23:57.315Z,26.68
2018-07-02T11:24:57.222Z,26.69
2018-07-02T11:26:49.934Z,26.69
2018-07-02T11:27:49.816Z,26.79
2018-07-02T11:29:42.518Z,26.74
2018-07-02T11:30:42.419Z,26.93
2018-07-02T11:32:35.131Z,26.96
2018-07-02T11:33:35.011Z,26.99
2018-07-02T11:35:27.714Z,26.87
2018-07-02T11:36:27.602Z,26.84
2018-07-02T11:38:20.350Z,26.71
2018-07-02T11:39:20.205Z,26.76
2018-07-02T11:41:12.905Z,26.79
2018-07-02T11:42:12.806Z,26.78
2018-07-02T11:44:05.563Z,26.78
2018-07-02T11:45:05.402Z,26.39
2018-07-02T11:46:58.092Z,25.84
2018-07-02T11:47:57.996Z,25.57
2018-07-02T11:49:50.708Z,25.38
2018-07-02T11:50:50.587Z,25.42
2018-07-02T11:52:43.285Z,25.33
2018-07-02T11:53:43.190Z,25.38
2018-07-02T11:55:35.975Z,25.45
2018-07-02T11:56:35.913Z,25.45
2018-07-02T11:58:28.568Z,25.78
2018-07-02T11:59:28.541Z,25.85
2018-07-02T12:01:21.254Z,26.07
2018-07-02T12:02:21.104Z,26.22
2018-07-02T12:04:13.957Z,26.26
2018-07-02T12:05:13.737Z,26.34
2018-07-02T12:07:06.425Z,26.50
2018-07-02T12:08:06.335Z,26.44
2018-07-02T12:09:59.093Z,26.49
2018-07-02T12:10:58.984Z,26.52
2018-07-02T12:12:51.706Z,26.67
2018-07-02T12:13:51.571Z,26.69
2018-07-02T12:15:44.295Z,26.67
2018-07-02T12:16:44.165Z,26.44
2018-07-02T12:18:36.858Z,26.07
2018-07-02T12:19:36.766Z,26.01
2018-07-02T12:21:29.474Z,25.88
2018-07-02T12:22:29.388Z,25.78
2018-07-02T12:24:22.086Z,25.93
2018-07-02T12:25:21.990Z,25.96
2018-07-02T12:27:14.774Z,26.00
2018-07-02T12:28:14.700Z,26.12
2018-07-02T12:30:07.830Z,26.39
2018-07-02T12:31:07.737Z,26.57
2018-07-02T12:33:00.449Z,26.78
2018-07-02T12:34:00.377Z,26.86
2018-07-02T12:35:53.039Z,26.59
2018-07-02T12:36:52.961Z,26.47
2018-07-02T12:38:45.814Z,26.32
2018-07-02T12:39:45.695Z,26.32
2018-07-02T12:41:38.415Z,26.17
2018-07-02T12:42:38.292Z,26.20
2018-07-02T12:44:31.034Z,26.45
2018-07-02T12:45:30.950Z,26.34
2018-07-02T12:47:23.714Z,26.34
2018-07-02T12:48:23.609Z,26.24
2018-07-02T12:50:16.351Z,26.34
2018-07-02T12:51:16.236Z,26.37
2018-07-02T12:53:09.768Z,26.19
2018-07-02T12:54:09.047Z,26.26
2018-07-02T12:56:01.796Z,26.44
2018-07-02T12:57:01.565Z,26.37
2018-07-02T12:58:54.257Z,26.49
2018-07-02T12:59:54.161Z,26.60
2018-07-02T13:01:46.993Z,26.74
2018-07-02T13:02:47.076Z,26.75
2018-07-02T13:04:39.605Z,26.69
2018-07-02T13:05:40.965Z,26.72
2018-07-02T13:07:32.192Z,26.69
2018-07-02T13:08:32.071Z,26.74
2018-07-02T13:10:24.771Z,26.84
2018-07-02T13:11:24.670Z,26.84
2018-07-02T13:13:17.391Z,26.69
2018-07-02T13:14:17.620Z,26.69
2018-07-02T13:16:10.014Z,26.64
2018-07-02T13:17:09.913Z,26.56
2018-07-02T13:19:02.633Z,26.68
2018-07-02T13:20:02.515Z,26.74
2018-07-02T13:21:56.350Z,26.90
2018-07-02T13:22:55.201Z,26.94
2018-07-02T13:24:48.002Z,27.00
2018-07-02T13:25:47.738Z,26.93
2018-07-02T13:27:40.432Z,26.81
2018-07-02T13:28:40.583Z,26.53
2018-07-02T13:30:33.048Z,26.32
2018-07-02T13:31:33.036Z,26.52
2018-07-02T13:33:25.644Z,26.89
2018-07-02T13:34:25.779Z,27.06
2018-07-02T13:36:18.307Z,26.91
2018-07-02T13:37:18.163Z,26.91
2018-07-02T13:39:11.950Z,27.00
2018-07-02T13:40:10.842Z,26.91
2018-07-02T13:42:03.430Z,27.04
2018-07-02T13:43:03.329Z,27.09
2018-07-02T13:44:56.054Z,27.06
2018-07-02T13:45:55.928Z,27.06
2018-07-02T13:47:48.616Z,27.08
2018-07-02T13:48:48.522Z,27.04
2018-07-02T13:50:41.255Z,27.11
2018-07-02T13:51:41.158Z,27.06
2018-07-02T13:53:33.838Z,26.90
2018-07-02T13:54:33.737Z,26.89
2018-07-02T13:56:26.527Z,26.87
2018-07-02T13:57:26.408Z,26.91
2018-07-02T13:59:19.090Z,26.94
2018-07-02T14:00:19.042Z,26.99
2018-07-02T14:02:12.013Z,27.04
2018-07-02T14:03:11.734Z,26.90
2018-07-02T14:05:04.311Z,26.90
2018-07-02T14:06:04.220Z,26.97
2018-07-02T14:07:56.933Z,26.97
2018-07-02T14:08:56.838Z,26.97
2018-07-02T14:10:49.540Z,27.06
2018-07-02T14:11:49.414Z,27.12
2018-07-02T14:13:42.110Z,27.06
2018-07-02T14:14:42.064Z,27.01
2018-07-02T14:16:34.750Z,27.21
2018-07-02T14:17:34.615Z,27.30
2018-07-02T14:19:27.314Z,27.43
2018-07-02T14:20:27.212Z,27.38
2018-07-02T14:22:19.929Z,27.46
2018-07-02T14:23:19.817Z,27.30
2018-07-02T14:25:12.511Z,27.23
2018-07-02T14:26:12.415Z,27.41
2018-07-02T14:28:05.137Z,27.28
2018-07-02T14:29:05.021Z,27.09
2018-07-02T14:30:57.714Z,26.87
2018-07-02T14:31:57.624Z,26.63
2018-07-02T14:33:50.327Z,26.84
2018-07-02T14:34:50.215Z,27.00
2018-07-02T14:36:42.910Z,27.15
2018-07-02T14:37:42.810Z,27.26
2018-07-02T14:39:35.588Z,27.19
2018-07-02T14:40:35.412Z,27.08
2018-07-02T14:42:28.113Z,27.15
2018-07-02T14:43:28.015Z,27.16
2018-07-02T14:45:20.896Z,27.38
2018-07-02T14:46:20.614Z,27.41
2018-07-02T14:48:13.583Z,27.46
2018-07-02T14:49:13.484Z,27.59
2018-07-02T14:51:06.258Z,27.62
2018-07-02T14:52:06.088Z,27.59
2018-07-02T14:53:58.836Z,27.74
2018-07-02T14:54:58.741Z,27.81
2018-07-02T14:56:51.453Z,27.71
2018-07-02T14:57:51.339Z,27.61
2018-07-02T14:59:44.032Z,27.64
2018-07-02T15:00:43.938Z,27.55
2018-07-02T15:02:36.649Z,27.33
2018-07-02T15:03:36.527Z,27.11
2018-07-02T15:05:29.225Z,27.06
2018-07-02T15:06:29.132Z,27.09
2018-07-02T15:08:21.837Z,27.13
2018-07-02T15:09:21.723Z,27.21
2018-07-02T15:11:14.421Z,27.46
2018-07-02T15:12:14.320Z,27.55
2018-07-02T15:14:07.035Z,27.38
2018-07-02T15:15:06.920Z,27.24
2018-07-02T15:16:59.612Z,26.96
2018-07-02T15:17:59.526Z,26.86
2018-07-02T15:19:52.236Z,26.82
2018-07-02T15:20:52.125Z,26.82
2018-07-02T15:22:44.845Z,26.75
2018-07-02T15:23:44.719Z,26.61
2018-07-02T15:25:37.417Z,26.52
2018-07-02T15:26:37.320Z,26.57
2018-07-02T15:28:30.036Z,26.47
2018-07-02T15:29:29.915Z,26.64
2018-07-02T15:31:22.615Z,26.72
2018-07-02T15:32:22.510Z,26.91
2018-07-02T15:34:15.238Z,26.94
2018-07-02T15:35:15.109Z,27.09
2018-07-02T15:37:07.798Z,27.06
2018-07-02T15:38:07.698Z,27.09
2018-07-02T15:40:00.417Z,27.00
2018-07-02T15:41:00.296Z,26.90
2018-07-02T15:42:52.992Z,26.69
2018-07-02T15:43:52.893Z,26.79
2018-07-02T15:45:45.614Z,26.72
2018-07-02T15:46:45.504Z,26.68
2018-07-02T15:48:38.266Z,26.68
2018-07-02T15:49:38.104Z,26.82
2018-07-02T15:51:30.802Z,26.89
2018-07-02T15:52:30.688Z,26.96
2018-07-02T15:54:23.389Z,27.05
2018-07-02T15:55:23.289Z,27.16
2018-07-02T15:57:16.000Z,27.38
2018-07-02T15:58:15.889Z,27.42
2018-07-02T16:00:08.593Z,27.52
2018-07-02T16:01:08.615Z,27.49
2018-07-02T16:03:01.197Z,27.36
2018-07-02T16:04:01.076Z,27.04
2018-07-02T16:05:53.773Z,26.64
2018-07-02T16:06:53.678Z,26.54
2018-07-02T16:08:46.388Z,26.49
2018-07-02T16:09:46.270Z,26.63
2018-07-02T16:11:38.970Z,26.72
2018-07-02T16:12:38.874Z,26.82
2018-07-02T16:14:31.583Z,26.56
2018-07-02T16:15:31.467Z,26.56
2018-07-02T16:17:24.219Z,26.74
2018-07-02T16:18:24.063Z,26.72
2018-07-02T16:20:16.918Z,26.68
2018-07-02T16:21:16.656Z,26.56
2018-07-02T16:23:09.461Z,26.81
2018-07-02T16:24:09.328Z,26.75
2018-07-02T16:26:02.158Z,26.86
2018-07-02T16:27:01.918Z,26.93
2018-07-02T16:28:54.665Z,26.79
2018-07-02T16:29:54.513Z,26.67
2018-07-02T16:31:47.230Z,26.67
2018-07-02T16:32:47.111Z,26.59
2018-07-02T16:34:39.807Z,26.64
2018-07-02T16:35:39.726Z,26.69
2018-07-02T16:37:32.427Z,26.67
2018-07-02T16:38:32.310Z,26.71
2018-07-02T16:40:25.009Z,26.72
2018-07-02T16:41:24.954Z,26.74
2018-07-02T16:43:17.621Z,26.68
2018-07-02T16:44:17.508Z,26.68
2018-07-02T16:46:10.201Z,26.44
2018-07-02T16:47:10.101Z,26.37
2018-07-02T16:49:02.814Z,26.41
2018-07-02T16:50:02.700Z,26.47
2018-07-02T16:51:55.537Z,26.59
2018-07-02T16:52:55.296Z,26.64
2018-07-02T16:54:48.074Z,26.72
2018-07-02T16:55:47.892Z,26.72
2018-07-02T16:57:40.584Z,26.67
2018-07-02T16:58:40.487Z,26.52
2018-07-02T17:00:33.215Z,26.45
2018-07-02T17:01:33.088Z,26.53
2018-07-02T17:03:25.868Z,26.54
2018-07-02T17:04:26.041Z,26.41
2018-07-02T17:06:18.536Z,26.30
2018-07-02T17:07:18.388Z,26.26
2018-07-02T17:09:11.250Z,25.94
2018-07-02T17:10:11.154Z,25.96
2018-07-02T17:12:03.910Z,25.99
2018-07-02T17:13:03.790Z,26.15
2018-07-02T17:14:56.488Z,26.23
2018-07-02T17:15:56.382Z,26.20
2018-07-02T17:17:49.097Z,26.35
2018-07-02T17:18:48.987Z,26.24
2018-07-02T17:20:41.712Z,26.16
2018-07-02T17:21:41.603Z,26.06
2018-07-02T17:23:34.312Z,25.96
2018-07-02T17:24:34.197Z,26.07
2018-07-02T17:26:26.891Z,26.07
2018-07-02T17:27:26.796Z,26.04
2018-07-02T17:29:19.507Z,26.09
2018-07-02T17:30:19.389Z,25.96
2018-07-02T17:32:12.074Z,26.00
2018-07-02T17:33:11.978Z,26.12
2018-07-02T17:35:04.722Z,26.03
2018-07-02T17:36:04.578Z,26.07
2018-07-02T17:37:57.271Z,26.07
2018-07-02T17:38:57.169Z,26.07
2018-07-02T17:40:49.896Z,25.97
2018-07-02T17:41:49.764Z,25.91
2018-07-02T17:43:42.459Z,25.81
2018-07-02T17:44:42.356Z,25.88
2018-07-02T17:46:35.074Z,25.94
2018-07-02T17:47:34.960Z,25.97
2018-07-02T17:49:27.686Z,25.91
2018-07-02T17:50:27.578Z,25.93
2018-07-02T17:52:20.300Z,26.22
2018-07-02T17:53:20.185Z,26.26
2018-07-02T17:55:12.875Z,26.26
2018-07-02T17:56:12.767Z,26.22
2018-07-02T17:58:05.478Z,26.00
2018-07-02T17:59:05.361Z,26.06
2018-07-02T18:00:59.233Z,25.91
2018-07-02T18:01:58.969Z,25.93
2018-07-02T18:03:51.700Z,25.86
2018-07-02T18:04:51.570Z,25.91
2018-07-02T18:06:44.283Z,25.89
2018-07-02T18:07:44.184Z,25.96
2018-07-02T18:09:37.156Z,25.74
2018-07-02T18:10:36.812Z,25.69
2018-07-02T18:12:29.532Z,25.69
2018-07-02T18:13:29.440Z,25.54
2018-07-02T18:15:22.673Z,25.41
2018-07-02T18:16:22.534Z,25.38
2018-07-02T18:18:15.236Z,25.45
2018-07-02T18:19:15.128Z,25.44
2018-07-02T18:21:07.867Z,25.48
2018-07-02T18:22:07.719Z,25.39
2018-07-02T18:24:00.411Z,25.38
2018-07-02T18:25:00.307Z,25.39
2018-07-02T18:26:53.067Z,25.34
2018-07-02T18:27:52.898Z,25.27
2018-07-02T18:29:45.591Z,25.22
2018-07-02T18:30:45.496Z,25.29
2018-07-02T18:32:38.209Z,25.22
2018-07-02T18:33:38.094Z,25.19
2018-07-02T18:35:30.776Z,25.14
2018-07-02T18:36:30.693Z,25.12
2018-07-02T18:38:23.387Z,25.12
2018-07-02T18:39:23.278Z,25.00
2018-07-02T18:41:15.965Z,24.92
2018-07-02T18:42:15.867Z,24.93
2018-07-02T18:44:08.597Z,24.83
2018-07-02T18:45:08.486Z,24.66
2018-07-02T18:47:01.174Z,24.67
2018-07-02T18:48:01.072Z,24.59
2018-07-02T18:49:53.803Z,24.58
2018-07-02T18:50:53.667Z,24.54
2018-07-02T18:52:46.353Z,24.39
2018-07-02T18:53:46.258Z,24.45
2018-07-02T18:55:38.997Z,24.34
2018-07-02T18:56:38.850Z,24.30
2018-07-02T18:58:32.535Z,24.21
2018-07-02T18:59:32.438Z,24.15
2018-07-02T19:01:25.140Z,24.02
2018-07-02T19:02:25.023Z,24.03
2018-07-02T19:04:17.720Z,23.92
2018-07-02T19:05:17.619Z,23.90
2018-07-02T19:07:10.332Z,23.74
2018-07-02T19:08:10.210Z,23.75
2018-07-02T19:10:02.903Z,23.64
2018-07-02T19:11:02.805Z,23.56
2018-07-02T19:12:55.509Z,23.56
2018-07-02T19:13:55.390Z,23.52
2018-07-02T19:15:48.082Z,23.41
2018-07-02T19:16:48.031Z,23.40
2018-07-02T19:18:40.695Z,23.29
2018-07-02T19:19:40.586Z,23.19
2018-07-02T19:21:33.254Z,23.12
2018-07-02T19:22:33.187Z,23.01
2018-07-02T19:24:26.994Z,22.92
2018-07-02T19:25:26.783Z,22.88
2018-07-02T19:27:19.473Z,22.82
2018-07-02T19:28:19.377Z,22.81
2018-07-02T19:30:12.093Z,22.71
2018-07-02T19:31:11.968Z,22.73
2018-07-02T19:33:05.653Z,22.70
2018-07-02T19:34:05.553Z,22.59
2018-07-02T19:35:58.256Z,22.51
2018-07-02T19:36:58.134Z,22.54
2018-07-02T19:38:50.827Z,22.44
2018-07-02T19:39:50.722Z,22.45
2018-07-02T19:41:43.425Z,22.45
2018-07-02T19:42:43.311Z,22.36
2018-07-02T19:44:36.002Z,22.34
2018-07-02T19:45:35.905Z,22.36
2018-07-02T19:47:28.611Z,22.26
2018-07-02T19:48:28.488Z,22.24
2018-07-02T19:50:21.209Z,22.12
2018-07-02T19:51:21.081Z,22.18
2018-07-02T19:53:13.760Z,22.12
2018-07-02T19:54:13.666Z,22.00
2018-07-02T19:56:06.369Z,21.97
2018-07-02T19:57:06.257Z,21.90
2018-07-02T19:58:58.946Z,21.76
2018-07-02T19:59:58.853Z,21.70
2018-07-02T20:01:51.565Z,21.70
2018-07-02T20:02:51.508Z,21.70
2018-07-02T20:04:44.121Z,21.70
2018-07-02T20:05:44.020Z,21.70
2018-07-02T20:07:36.724Z,21.70
2018-07-02T20:08:36.607Z,21.68
2018-07-02T20:10:29.302Z,21.62
2018-07-02T20:11:29.194Z,21.64
2018-07-02T20:13:22.959Z,21.56
2018-07-02T20:14:22.783Z,21.55
2018-07-02T20:16:15.460Z,21.51
2018-07-02T20:17:15.373Z,21.49
2018-07-02T20:19:08.210Z,21.38
2018-07-02T20:20:07.947Z,21.40
2018-07-02T20:22:00.625Z,21.23
2018-07-02T20:23:00.542Z,21.30
2018-07-02T20:24:53.239Z,21.12
2018-07-02T20:25:53.114Z,21.21
2018-07-02T20:27:45.805Z,21.12
2018-07-02T20:28:45.707Z,21.04
2018-07-02T20:30:38.412Z,21.00
2018-07-02T20:31:38.312Z,20.96
2018-07-02T20:33:30.980Z,20.94
2018-07-02T20:34:30.874Z,20.94
2018-07-02T20:36:23.591Z,20.86
2018-07-02T20:37:23.471Z,20.83
2018-07-02T20:39:16.154Z,20.76
2018-07-02T20:40:16.054Z,20.68
2018-07-02T20:42:08.753Z,20.63
2018-07-02T20:43:08.641Z,20.60
2018-07-02T20:45:01.474Z,20.60
2018-07-02T20:46:01.319Z,20.53
2018-07-02T20:47:53.958Z,20.49
2018-07-02T20:48:53.837Z,20.57
2018-07-02T20:50:46.537Z,20.49
2018-07-02T20:51:46.423Z,20.48
2018-07-02T20:53:39.147Z,20.32
2018-07-02T20:54:39.006Z,20.44
2018-07-02T20:56:31.789Z,20.30
2018-07-02T20:57:31.668Z,20.26
2018-07-02T20:59:24.351Z,20.23
2018-07-02T21:00:24.246Z,20.20
2018-07-02T21:02:16.956Z,20.20
2018-07-02T21:03:16.836Z,20.20
2018-07-02T21:05:09.581Z,20.15
2018-07-02T21:06:09.424Z,20.20
2018-07-02T21:08:02.113Z,20.12
2018-07-02T21:09:01.999Z,20.05
2018-07-02T21:10:54.680Z,19.98
2018-07-02T21:11:54.580Z,19.90
2018-07-02T21:13:47.292Z,19.87
2018-07-02T21:14:47.159Z,19.79
2018-07-02T21:16:39.847Z,19.82
2018-07-02T21:17:39.744Z,19.74
2018-07-02T21:19:32.464Z,19.71
2018-07-02T21:20:32.325Z,19.75
2018-07-02T21:22:25.015Z,19.72
2018-07-02T21:23:24.920Z,19.82
2018-07-02T21:25:17.629Z,19.86
2018-07-02T21:26:17.503Z,19.95
2018-07-02T21:28:10.190Z,19.79
2018-07-02T21:29:10.085Z,19.82
2018-07-02T21:31:02.940Z,19.83
2018-07-02T21:32:02.669Z,19.70
2018-07-02T21:33:55.350Z,19.71
2018-07-02T21:34:55.244Z,19.67
2018-07-02T21:36:48.030Z,19.65
2018-07-02T21:37:47.837Z,19.63
2018-07-02T21:39:40.514Z,19.56
2018-07-02T21:40:40.413Z,19.56
2018-07-02T21:42:33.288Z,19.46
2018-07-02T21:43:33.147Z,19.34
2018-07-02T21:45:25.935Z,19.38
2018-07-02T21:46:25.701Z,19.35
2018-07-02T21:48:18.391Z,19.32
2018-07-02T21:49:18.357Z,19.17
2018-07-02T21:51:11.173Z,19.16
2018-07-02T21:52:10.926Z,19.10
2018-07-02T21:54:03.602Z,19.12
2018-07-02T21:55:03.495Z,19.09
2018-07-02T21:56:56.206Z,19.23
2018-07-02T21:57:56.094Z,19.15
2018-07-02T21:59:48.914Z,19.07
